Terminal Aerodrome Forecast
Issued by NWS

Home | Current Version | Previous Version | Text Only | Print | Product List | Glossary On
Versions: 1 2 3 4 5 6 7 8 9 10 11 12 13 14 15 16 17 18 19 20 21 22 23 24 25 26 27 28 29 30 31 32 33 34 35 36 37 38 39 40 41 42 43 44 45 46 47 48 49 50
000
FTAK31 PAFA 211416 AAB
TAFASC
TAF AMD
PASC 211416Z 2114/2212 07030G39KT P6SM -SHSN OVC016
      TEMPO 2114/2117 2SM -FZDZSN BLSN BR BKN008 OVC015
     FM211900 08031G38KT 3SM -SHSN BLSN BR SCT007 OVC015
     FM220300 08038G45KT 1SM -SHSN BLSN BR OVC007=

USA.gov is the U.S. government's official web portal to all federal, state and local government web resources and services.